Time;durP1;ratioP1;P1;durP2;ratioP2;P2;SDS_P1;SDS_P2;PMS_P1;PMS_P2;Temp;Humidity;BMP_temperature;BMP_pressure;BME280_temperature;BME280_humidity;BME280_pressure;Samples;Min_cycle;Max_cycle;Signal;HPM_P1;HPM_P2
2023/02/04 00:00:15;;;;;;;15.80;10.30;;;;;;;1.13;85.31;100521.75;5031805;28;20025;-70
2023/02/04 00:02:41;;;;;;;17.47;10.93;;;;;;;1.22;85.70;100525.75;5031849;28;20069;-70
2023/02/04 00:05:09;;;;;;;19.10;9.93;;;;;;;1.34;85.08;100524.13;5031549;28;20410;-70
2023/02/04 00:07:35;;;;;;;16.55;9.93;;;;;;;1.32;85.37;100525.69;5031912;28;20368;-70
2023/02/04 00:10:02;;;;;;;18.10;11.50;;;;;;;1.32;85.47;100523.13;5031570;28;20087;-70
2023/02/04 00:12:27;;;;;;;15.10;9.93;;;;;;;1.33;84.91;100513.84;5031396;28;20380;-70
2023/02/04 00:14:53;;;;;;;16.47;11.10;;;;;;;1.40;85.08;100506.78;5030265;28;20033;-70
2023/02/04 00:17:18;;;;;;;16.02;9.95;;;;;;;0.98;84.87;100444.31;5029441;28;20041;-70
2023/02/04 00:19:43;;;;;;;14.95;10.27;;;;;;;1.43;83.74;100506.13;5030303;28;20048;-69
2023/02/04 00:22:12;;;;;;;15.53;9.83;;;;;;;1.34;83.87;100500.34;5031030;28;20033;-69
2023/02/04 00:24:38;;;;;;;14.83;10.03;;;;;;;1.35;84.74;100499.59;5030945;28;20021;-70
2023/02/04 00:27:04;;;;;;;14.57;10.13;;;;;;;1.35;85.14;100503.00;5031128;28;20021;-70
2023/02/04 00:29:30;;;;;;;15.23;9.80;;;;;;;1.37;84.62;100504.00;5031428;28;20025;-70
2023/02/04 00:31:56;;;;;;;13.00;8.93;;;;;;;1.35;84.48;100502.13;5030384;28;20419;-69
2023/02/04 00:34:22;;;;;;;14.20;9.53;;;;;;;1.33;84.94;100494.38;4996707;28;20083;-68
2023/02/04 00:36:48;;;;;;;13.17;8.07;;;;;;;1.33;84.54;100484.19;5031202;28;20026;-69
2023/02/04 00:39:14;;;;;;;12.67;7.90;;;;;;;0.96;85.74;100436.59;5030889;28;20036;-69
2023/02/04 00:41:39;;;;;;;11.37;8.27;;;;;;;1.25;86.09;100477.66;5031407;28;20033;-68
2023/02/04 00:44:05;;;;;;;13.35;7.85;;;;;;;1.35;85.37;100482.66;5030763;28;20025;-69
2023/02/04 00:46:30;;;;;;;11.17;7.47;;;;;;;1.35;85.05;100464.84;5031510;28;20490;-69
2023/02/04 00:48:55;;;;;;;11.85;7.70;;;;;;;1.39;84.88;100463.41;5031113;28;20029;-69
2023/02/04 00:51:21;;;;;;;10.85;6.97;;;;;;;1.38;85.33;100457.44;5031247;28;20413;-69
2023/02/04 00:53:46;;;;;;;10.65;7.32;;;;;;;1.23;85.52;100436.84;5031176;28;20553;-68
2023/02/04 00:56:12;;;;;;;12.38;7.03;;;;;;;1.22;85.30;100446.91;5030324;28;20029;-69
2023/02/04 00:58:37;;;;;;;10.23;6.80;;;;;;;0.99;84.87;100407.09;5030266;28;20403;-69
2023/02/04 01:01:03;;;;;;;10.73;7.03;;;;;;;1.19;84.80;100442.47;4979355;28;20065;-69
2023/02/04 01:03:29;;;;;;;10.38;6.80;;;;;;;1.21;84.53;100437.50;5030159;28;20460;-67
2023/02/04 01:05:54;;;;;;;10.97;7.30;;;;;;;1.12;84.39;100420.81;5030419;28;20057;-69
2023/02/04 01:08:20;;;;;;;10.20;7.00;;;;;;;1.26;84.70;100441.31;5029499;28;20116;-70
2023/02/04 01:10:45;;;;;;;11.50;7.47;;;;;;;1.19;85.31;100418.72;5028645;28;20036;-69
2023/02/04 01:13:12;;;;;;;11.07;7.53;;;;;;;1.26;86.63;100437.09;5029106;28;20045;-69
2023/02/04 01:15:37;;;;;;;11.23;7.57;;;;;;;1.34;86.73;100431.69;4978122;28;20538;-69
2023/02/04 01:18:03;;;;;;;14.23;7.57;;;;;;;1.36;86.79;100430.13;5029200;28;20112;-69
2023/02/04 01:20:29;;;;;;;13.60;8.48;;;;;;;1.27;87.23;100410.88;5029651;28;20115;-69
2023/02/04 01:22:55;;;;;;;13.18;8.02;;;;;;;1.37;87.65;100421.72;5028886;28;20522;-69
2023/02/04 01:25:21;;;;;;;11.65;7.90;;;;;;;1.39;87.54;100412.53;5029656;28;20041;-69
2023/02/04 01:27:46;;;;;;;10.95;8.40;;;;;;;1.37;87.19;100404.81;5029465;28;20026;-69
2023/02/04 01:30:14;;;;;;;12.43;7.90;;;;;;;1.34;87.30;100396.94;5029000;28;20033;-69
2023/02/04 01:32:40;;;;;;;14.95;8.40;;;;;;;1.40;87.47;100401.59;5029102;28;20095;-68
2023/02/04 01:35:06;;;;;;;11.40;8.20;;;;;;;1.28;87.21;100387.22;5028812;28;20022;-68
2023/02/04 01:37:31;;;;;;;12.53;8.67;;;;;;;1.35;87.28;100393.63;5028952;28;20028;-69
2023/02/04 01:39:57;;;;;;;14.70;8.82;;;;;;;1.41;86.80;100389.00;5029378;28;20464;-69
2023/02/04 01:42:22;;;;;;;14.67;9.43;;;;;;;1.38;86.47;100383.66;5011758;28;20013;-68
2023/02/04 01:44:48;;;;;;;12.87;9.37;;;;;;;1.44;85.94;100386.66;5029971;28;21105;-68
2023/02/04 01:47:14;;;;;;;16.30;10.53;;;;;;;1.17;86.19;100326.19;5029709;28;20030;-68
2023/02/04 01:49:40;;;;;;;14.80;9.70;;;;;;;1.44;87.14;100378.16;5029643;28;20056;-68
2023/02/04 01:52:05;;;;;;;13.80;9.23;;;;;;;1.48;86.94;100376.72;5029303;28;20033;-68
2023/02/04 01:54:31;;;;;;;11.88;8.38;;;;;;;1.48;87.97;100369.94;5030131;28;20108;-67
2023/02/04 01:56:57;;;;;;;16.47;9.13;;;;;;;1.53;87.60;100385.56;4994893;28;20048;-67
2023/02/04 01:59:23;;;;;;;14.10;9.50;;;;;;;1.33;87.56;100363.78;5029643;28;20418;-67
2023/02/04 02:01:50;;;;;;;13.87;8.70;;;;;;;1.17;90.43;100390.63;5030033;28;20440;-67
2023/02/04 02:04:19;;;;;;;16.43;9.80;;;;;;;1.07;89.87;100353.50;5029923;28;20119;-68
2023/02/04 02:06:52;;;;;;;14.85;9.93;;;;;;;1.16;89.88;100334.56;5029900;28;20030;-68
2023/02/04 02:09:18;;;;;;;14.10;8.20;;;;;;;1.47;89.15;100369.84;5030141;28;20029;-67
2023/02/04 02:11:43;;;;;;;14.57;8.80;;;;;;;1.55;89.20;100359.44;5029831;28;20147;-68
2023/02/04 02:14:10;;;;;;;13.70;9.23;;;;;;;1.55;88.95;100344.19;5029733;28;20391;-67
2023/02/04 02:16:35;;;;;;;14.93;8.47;;;;;;;1.64;88.01;100343.94;5030038;28;20032;-68
2023/02/04 02:19:01;;;;;;;13.80;8.80;;;;;;;1.63;87.38;100333.66;5012311;28;20116;-68
2023/02/04 02:21:38;;;;;;;14.48;8.70;;;;;;;1.72;87.53;100353.00;5029970;28;20104;-68
2023/02/04 02:24:30;;;;;;;12.38;7.15;;;;;;;1.61;87.88;100354.78;5029687;28;20021;-67
2023/02/04 02:26:57;;;;;;;13.23;8.35;;;;;;;1.63;87.77;100354.03;5029464;28;20030;-68
2023/02/04 02:29:23;;;;;;;14.07;8.90;;;;;;;1.72;87.27;100353.00;5007406;28;20081;-67
2023/02/04 02:31:49;;;;;;;13.05;8.77;;;;;;;1.81;86.60;100359.50;5007700;28;20041;-68
2023/02/04 02:34:15;;;;;;;13.80;8.10;;;;;;;1.88;87.52;100349.88;4994831;28;20042;-67
2023/02/04 02:36:41;;;;;;;12.52;7.95;;;;;;;1.88;86.62;100343.88;5007704;28;20057;-67
2023/02/04 02:39:07;;;;;;;11.50;8.18;;;;;;;1.70;88.26;100310.41;5008856;28;20063;-68
2023/02/04 02:41:34;;;;;;;14.68;8.25;;;;;;;1.91;88.36;100328.84;5011600;28;20036;-68
2023/02/04 02:44:00;;;;;;;14.20;8.30;;;;;;;1.92;89.77;100331.50;4998426;28;20077;-68
2023/02/04 02:46:26;;;;;;;18.38;10.07;;;;;;;1.91;90.44;100323.75;5011461;28;20113;-68
2023/02/04 02:48:51;;;;;;;14.45;9.20;;;;;;;1.47;90.94;100270.63;5011055;28;20397;-67
2023/02/04 02:51:17;;;;;;;12.77;8.52;;;;;;;1.77;92.18;100318.59;4991573;28;20069;-67
2023/02/04 02:53:48;;;;;;;13.35;8.85;;;;;;;1.77;93.03;100316.03;4991681;28;20519;-69
2023/02/04 02:56:15;;;;;;;12.85;7.85;;;;;;;1.62;94.18;100294.63;4991843;28;20042;-69
2023/02/04 02:58:40;;;;;;;12.65;8.45;;;;;;;1.78;95.45;100306.72;4991488;28;20027;-69
2023/02/04 03:01:08;;;;;;;14.25;8.07;;;;;;;1.72;95.95;100299.56;4991462;28;20057;-69
2023/02/04 03:03:41;;;;;;;12.80;8.85;;;;;;;1.69;96.68;100298.47;4994286;28;20069;-68
2023/02/04 03:06:12;;;;;;;11.82;7.07;;;;;;;1.59;96.86;100259.63;5011076;28;20041;-69
2023/02/04 03:08:38;;;;;;;8.57;6.00;;;;;;;1.93;96.67;100286.53;5011312;28;20107;-68
2023/02/04 03:11:04;;;;;;;8.38;5.70;;;;;;;1.93;95.75;100264.53;5011119;28;20516;-68
2023/02/04 03:13:30;;;;;;;8.52;5.50;;;;;;;2.12;94.70;100268.31;5010792;28;20042;-68
2023/02/04 03:15:56;;;;;;;8.43;5.38;;;;;;;2.26;93.32;100274.34;5010908;28;20034;-68
2023/02/04 03:18:22;;;;;;;10.15;6.07;;;;;;;2.15;92.29;100227.75;5010388;28;20034;-68
2023/02/04 03:20:49;;;;;;;9.02;6.10;;;;;;;2.51;91.17;100266.63;5010689;28;20038;-68
2023/02/04 03:23:15;;;;;;;7.93;5.47;;;;;;;2.54;90.99;100264.31;5030497;28;20045;-68
2023/02/04 03:25:41;;;;;;;7.70;5.53;;;;;;;2.51;92.51;100264.09;5032922;28;20407;-68
2023/02/04 03:28:06;;;;;;;7.20;4.80;;;;;;;2.38;93.91;100252.22;5032912;28;20029;-68
2023/02/04 03:30:32;;;;;;;7.25;4.65;;;;;;;2.33;95.74;100238.31;5013861;28;20561;-68
2023/02/04 03:32:57;;;;;;;9.23;5.10;;;;;;;2.07;97.49;100198.38;5032443;28;20104;-68
2023/02/04 03:35:23;;;;;;;6.85;5.05;;;;;;;2.25;100.00;100236.91;5032287;28;20410;-68
2023/02/04 03:37:48;;;;;;;6.85;5.20;;;;;;;2.15;100.00;100244.72;5032721;28;20033;-68
2023/02/04 03:40:14;;;;;;;10.18;5.82;;;;;;;2.02;100.00;100213.34;5032436;28;20036;-68
2023/02/04 03:42:39;;;;;;;8.75;5.53;;;;;;;2.15;100.00;100227.75;5032665;28;20030;-68
2023/02/04 03:45:05;;;;;;;8.48;5.63;;;;;;;2.23;100.00;100212.97;5032294;28;20056;-68
2023/02/04 03:47:31;;;;;;;8.70;6.13;;;;;;;2.24;100.00;100217.31;5032262;28;20037;-69
2023/02/04 03:49:57;;;;;;;9.55;6.05;;;;;;;2.27;100.00;100194.59;5031788;28;20045;-69
2023/02/04 03:52:22;;;;;;;12.07;6.22;;;;;;;2.27;100.00;100197.13;5031902;28;20061;-69
2023/02/04 03:54:48;;;;;;;7.53;4.88;;;;;;;2.30;100.00;100197.31;5032174;28;20060;-69
2023/02/04 03:57:14;;;;;;;8.65;5.90;;;;;;;2.25;100.00;100183.41;5032623;28;20033;-69
2023/02/04 03:59:40;;;;;;;7.72;5.30;;;;;;;2.32;100.00;100195.78;5014025;28;20057;-69
2023/02/04 04:02:06;;;;;;;6.40;4.60;;;;;;;2.31;100.00;100188.91;5031504;28;20072;-69
2023/02/04 04:04:31;;;;;;;6.97;4.55;;;;;;;2.21;100.00;100194.19;5032029;28;20045;-68
2023/02/04 04:06:57;;;;;;;6.22;4.40;;;;;;;2.28;100.00;100183.63;5032181;28;20471;-69
2023/02/04 04:09:23;;;;;;;6.75;4.32;;;;;;;2.26;100.00;100178.41;5031997;28;20025;-69
2023/02/04 04:11:48;;;;;;;6.60;4.47;;;;;;;2.20;100.00;100157.63;5032404;28;20105;-68
2023/02/04 04:14:13;;;;;;;6.32;3.85;;;;;;;2.36;100.00;100174.81;5032216;28;20034;-68
2023/02/04 04:16:39;;;;;;;6.18;4.35;;;;;;;2.42;100.00;100182.84;5031739;28;20391;-68
2023/02/04 04:19:04;;;;;;;6.57;4.03;;;;;;;2.43;100.00;100171.88;5032013;28;20442;-69
2023/02/04 04:21:30;;;;;;;6.88;4.57;;;;;;;2.43;100.00;100169.31;5026695;28;20073;-69
2023/02/04 04:23:55;;;;;;;7.50;4.65;;;;;;;2.28;100.00;100163.25;5015176;28;20033;-69
2023/02/04 04:26:21;;;;;;;8.45;5.10;;;;;;;2.28;100.00;100177.63;5025929;28;20082;-69
2023/02/04 04:28:46;;;;;;;7.97;5.50;;;;;;;2.25;100.00;100160.50;5031231;28;20029;-68
2023/02/04 04:31:12;;;;;;;7.85;5.20;;;;;;;2.29;100.00;100153.94;5031628;28;20403;-68
2023/02/04 04:33:38;;;;;;;8.75;5.97;;;;;;;2.35;100.00;100144.13;5031913;28;20025;-69
2023/02/04 04:36:04;;;;;;;9.68;6.53;;;;;;;2.40;100.00;100145.31;4980791;28;20046;-69
2023/02/04 04:38:30;;;;;;;9.30;5.85;;;;;;;2.39;100.00;100138.44;5012121;28;20029;-68
2023/02/04 04:40:55;;;;;;;8.90;5.82;;;;;;;2.42;100.00;100139.53;5012181;28;20410;-68
2023/02/04 04:43:20;;;;;;;8.93;5.72;;;;;;;2.41;100.00;100124.16;5011887;28;20396;-69
2023/02/04 04:45:46;;;;;;;8.02;5.45;;;;;;;2.54;100.00;100123.25;5011952;28;20029;-68
2023/02/04 04:48:11;;;;;;;10.40;6.10;;;;;;;2.55;100.00;100125.03;5012218;28;20026;-68
2023/02/04 04:50:37;;;;;;;8.10;5.40;;;;;;;2.57;100.00;100128.56;5012202;28;20026;-68
2023/02/04 04:53:02;;;;;;;7.80;5.65;;;;;;;2.58;100.00;100122.69;5023856;28;20040;-68
2023/02/04 04:55:28;;;;;;;9.43;5.85;;;;;;;2.59;100.00;100121.88;5031847;28;20144;-69
2023/02/04 04:57:53;;;;;;;11.00;5.10;;;;;;;1.94;100.00;100011.72;5031658;28;20033;-68
2023/02/04 05:00:20;;;;;;;8.43;5.82;;;;;;;2.66;100.00;100110.41;5031062;28;20033;-69
2023/02/04 05:02:45;;;;;;;7.43;5.40;;;;;;;2.51;100.00;100082.31;5030401;28;20069;-68
2023/02/04 05:05:12;;;;;;;9.30;5.90;;;;;;;2.73;100.00;100118.53;5022651;28;20039;-69
2023/02/04 05:07:38;;;;;;;10.52;6.70;;;;;;;2.79;100.00;100110.41;5021855;28;20486;-69
2023/02/04 05:10:04;;;;;;;11.57;6.13;;;;;;;2.71;100.00;100115.00;5021497;28;20037;-70
2023/02/04 05:12:29;;;;;;;8.55;5.57;;;;;;;2.59;100.00;100107.47;5022300;28;20494;-69
2023/02/04 05:14:55;;;;;;;7.93;5.32;;;;;;;2.52;100.00;100107.88;5022276;28;20025;-68
2023/02/04 05:17:21;;;;;;;12.85;5.75;;;;;;;2.44;100.00;100116.69;4993876;28;20088;-68
2023/02/04 05:19:46;;;;;;;9.93;7.53;;;;;;;2.37;100.00;100114.56;5020244;28;20533;-68
2023/02/04 05:22:12;;;;;;;10.55;7.15;;;;;;;2.24;100.00;100100.13;5011433;28;20034;-68
2023/02/04 05:24:37;;;;;;;10.68;7.47;;;;;;;2.30;100.00;100094.56;5011339;28;20114;-68
2023/02/04 05:27:02;;;;;;;10.05;6.40;;;;;;;2.41;100.00;100108.88;5011234;28;20443;-68
2023/02/04 05:29:28;;;;;;;9.63;5.72;;;;;;;2.00;100.00;100069.75;5011333;28;20025;-68
2023/02/04 05:31:53;;;;;;;11.68;6.60;;;;;;;2.02;100.00;100100.41;5011636;28;20109;-68
2023/02/04 05:34:19;;;;;;;9.65;6.45;;;;;;;2.13;100.00;100140.22;5011574;28;20050;-68
2023/02/04 05:36:44;;;;;;;8.80;6.28;;;;;;;2.17;100.00;100136.16;5011620;28;20033;-68
2023/02/04 05:39:10;;;;;;;12.38;8.20;;;;;;;2.12;100.00;100143.53;4960076;28;20042;-68
2023/02/04 05:41:35;;;;;;;12.63;8.80;;;;;;;1.85;100.00;100150.22;5020384;28;20041;-69
2023/02/04 05:44:02;;;;;;;14.15;9.90;;;;;;;1.81;100.00;100141.50;5028011;28;20033;-68
2023/02/04 05:46:27;;;;;;;16.20;8.52;;;;;;;1.41;100.00;100052.34;5030784;28;20033;-66
2023/02/04 05:48:53;;;;;;;12.45;8.48;;;;;;;1.99;100.00;100140.97;5029537;28;20034;-69
2023/02/04 05:51:18;;;;;;;12.52;7.85;;;;;;;2.10;100.00;100135.78;5016279;28;20096;-69
2023/02/04 05:53:44;;;;;;;11.93;7.68;;;;;;;2.19;100.00;100130.38;5018720;28;20038;-68
2023/02/04 05:56:09;;;;;;;11.88;7.93;;;;;;;2.18;100.00;100120.13;5026385;28;20410;-68
2023/02/04 05:58:35;;;;;;;14.00;8.05;;;;;;;2.08;100.00;100105.91;5035774;28;20151;-69
2023/02/04 06:01:01;;;;;;;14.02;9.15;;;;;;;1.87;100.00;100083.38;5029400;28;20025;-69
2023/02/04 06:03:29;;;;;;;17.00;10.30;;;;;;;1.98;100.00;100107.00;5029414;28;20036;-69
2023/02/04 06:05:55;;;;;;;13.98;9.13;;;;;;;1.93;100.00;100073.59;5029736;28;20041;-69
2023/02/04 06:08:20;;;;;;;10.02;6.72;;;;;;;1.76;100.00;100076.69;5029321;28;20021;-68
2023/02/04 06:10:46;;;;;;;12.63;8.68;;;;;;;1.82;100.00;100089.81;5029629;28;20030;-68
2023/02/04 06:13:11;;;;;;;10.13;7.13;;;;;;;1.89;100.00;100093.66;5028905;28;20025;-69
2023/02/04 06:15:38;;;;;;;9.45;6.55;;;;;;;2.03;100.00;100085.25;5029082;28;20017;-69
2023/02/04 06:18:04;;;;;;;10.65;7.32;;;;;;;2.13;100.00;100075.66;5029306;28;20021;-69
2023/02/04 06:20:29;;;;;;;9.90;6.70;;;;;;;2.30;100.00;100097.13;5029271;28;20111;-69
2023/02/04 06:22:55;;;;;;;9.23;5.93;;;;;;;2.42;100.00;100103.84;5011496;28;20057;-69
2023/02/04 06:25:41;;;;;;;10.25;6.90;;;;;;;2.51;100.00;100105.25;4972469;28;20116;-69
2023/02/04 06:28:06;;;;;;;8.00;6.40;;;;;;;2.62;100.00;100113.53;4987369;28;20501;-69
2023/02/04 06:30:31;;;;;;;8.85;6.10;;;;;;;2.59;100.00;100112.59;4987841;28;20039;-69
2023/02/04 06:32:57;;;;;;;10.77;7.15;;;;;;;2.31;100.00;100089.56;4987326;28;20592;-69
2023/02/04 06:35:23;;;;;;;14.40;8.27;;;;;;;2.31;100.00;100122.69;4987410;28;20054;-69
2023/02/04 06:37:48;;;;;;;10.95;7.72;;;;;;;2.26;100.00;100127.47;4971969;28;20436;-70
2023/02/04 06:40:16;;;;;;;12.63;8.55;;;;;;;2.17;100.00;100123.44;4987963;28;20058;-68
2023/02/04 06:42:41;;;;;;;12.63;8.48;;;;;;;2.07;100.00;100112.66;4987328;28;20078;-68
2023/02/04 06:45:07;;;;;;;15.57;9.75;;;;;;;2.05;100.00;100104.03;4987770;28;20082;-67
2023/02/04 06:47:33;;;;;;;13.13;9.75;;;;;;;2.10;100.00;100101.81;4988147;28;20034;-68
2023/02/04 06:49:58;;;;;;;39.35;22.52;;;;;;;1.92;100.00;100056.53;4988076;28;20065;-67
2023/02/04 06:52:24;;;;;;;20.70;11.50;;;;;;;2.05;100.00;100067.53;4987582;28;20089;-68
2023/02/04 06:54:49;;;;;;;22.38;15.85;;;;;;;2.27;100.00;100100.34;4988218;28;20390;-67
2023/02/04 06:57:14;;;;;;;15.57;11.98;;;;;;;2.32;100.00;100098.97;5018090;28;20115;-68
2023/02/04 06:59:42;;;;;;;27.27;18.90;;;;;;;2.39;100.00;100102.78;5029662;28;20047;-67
2023/02/04 07:02:10;;;;;;;16.02;10.32;;;;;;;2.45;100.00;100105.72;5029208;28;20040;-69
2023/02/04 07:04:35;;;;;;;21.08;12.10;;;;;;;2.50;100.00;100104.34;5040603;28;20148;-70
2023/02/04 07:07:01;;;;;;;15.85;11.07;;;;;;;2.39;100.00;100090.03;5049014;28;20029;-67
2023/02/04 07:09:26;;;;;;;14.98;8.68;;;;;;;2.44;100.00;100106.50;5047656;28;20103;-67
2023/02/04 07:11:52;;;;;;;20.05;12.00;;;;;;;2.58;100.00;100113.38;5048158;28;20106;-68
2023/02/04 07:14:18;;;;;;;19.23;11.93;;;;;;;2.64;100.00;100117.06;5048934;28;20110;-68
2023/02/04 07:16:44;;;;;;;13.50;9.70;;;;;;;2.63;100.00;100110.22;5048879;28;20029;-68
2023/02/04 07:19:09;;;;;;;19.55;12.95;;;;;;;2.60;100.00;100116.00;5048897;28;20029;-68
2023/02/04 07:21:35;;;;;;;11.80;8.15;;;;;;;2.66;100.00;100130.81;5046094;28;20024;-68
2023/02/04 07:24:00;;;;;;;17.80;12.95;;;;;;;2.59;100.00;100115.13;5048578;28;20033;-69
2023/02/04 07:26:26;;;;;;;26.77;20.02;;;;;;;2.39;100.00;100075.66;5052055;28;20025;-69
2023/02/04 07:28:51;;;;;;;16.48;13.10;;;;;;;2.48;100.00;100085.53;5052204;28;20021;-68
2023/02/04 07:31:17;;;;;;;17.20;11.60;;;;;;;2.80;100.00;100140.19;5052520;28;20063;-68
2023/02/04 07:33:42;;;;;;;17.80;10.98;;;;;;;2.80;100.00;100137.63;5052502;28;20037;-68
2023/02/04 07:36:08;;;;;;;9.25;6.47;;;;;;;2.79;100.00;100135.00;5053032;28;20457;-68
2023/02/04 07:38:33;;;;;;;9.13;6.38;;;;;;;2.65;100.00;100114.63;5053039;28;20033;-68
2023/02/04 07:40:59;;;;;;;10.15;6.68;;;;;;;2.77;100.00;100144.22;5052773;28;20411;-68
2023/02/04 07:43:25;;;;;;;12.32;6.00;;;;;;;2.79;100.00;100138.44;5033379;28;20478;-69
2023/02/04 07:45:50;;;;;;;9.55;5.95;;;;;;;2.80;100.00;100144.41;5033174;28;20036;-69
2023/02/04 07:48:16;;;;;;;9.90;7.93;;;;;;;2.72;100.00;100149.03;5035643;28;20029;-69
2023/02/04 07:50:41;;;;;;;9.15;6.80;;;;;;;2.73;100.00;100149.13;5033063;28;20037;-68
2023/02/04 07:53:07;;;;;;;10.73;6.40;;;;;;;2.87;100.00;100138.91;5032894;28;20029;-69
2023/02/04 07:55:33;;;;;;;9.27;6.78;;;;;;;2.81;100.00;100133.44;5032583;28;20105;-69
2023/02/04 07:57:58;;;;;;;12.52;7.85;;;;;;;2.63;100.00;100126.41;5032877;28;20439;-68
2023/02/04 08:00:24;;;;;;;11.88;8.18;;;;;;;2.57;100.00;100142.16;5032847;28;20087;-69
2023/02/04 08:02:49;;;;;;;14.05;10.13;;;;;;;2.51;100.00;100135.81;5032483;28;20065;-69
2023/02/04 08:05:15;;;;;;;13.50;8.77;;;;;;;2.57;100.00;100144.72;5015571;28;20054;-68
2023/02/04 08:07:41;;;;;;;12.18;8.48;;;;;;;2.60;100.00;100141.47;5012688;28;20045;-68
2023/02/04 08:10:09;;;;;;;13.07;8.38;;;;;;;2.52;100.00;100138.44;5012671;28;20030;-69
2023/02/04 08:12:34;;;;;;;13.48;8.40;;;;;;;2.54;100.00;100130.91;5012795;28;20478;-69
2023/02/04 08:15:00;;;;;;;12.55;8.30;;;;;;;2.57;100.00;100128.56;5012709;28;20109;-69
2023/02/04 08:17:26;;;;;;;11.90;9.23;;;;;;;2.51;100.00;100123.94;4995124;28;20116;-69
2023/02/04 08:19:51;;;;;;;12.45;8.23;;;;;;;2.41;100.00;100130.13;5012818;28;20030;-68
2023/02/04 08:22:17;;;;;;;12.27;9.05;;;;;;;2.39;100.00;100125.72;5012407;28;20060;-68
2023/02/04 08:24:42;;;;;;;12.13;9.40;;;;;;;2.44;100.00;100121.78;5012393;28;20041;-68
2023/02/04 08:27:08;;;;;;;13.30;9.23;;;;;;;2.48;100.00;100125.41;5012369;28;20034;-68
2023/02/04 08:29:33;;;;;;;12.57;8.52;;;;;;;2.25;100.00;100066.25;5017709;28;20034;-68
2023/02/04 08:31:59;;;;;;;10.77;8.35;;;;;;;2.45;100.00;100109.94;4993832;28;20074;-68
2023/02/04 08:34:24;;;;;;;11.75;8.18;;;;;;;2.34;100.00;100102.47;5011871;28;20033;-68
2023/02/04 08:36:50;;;;;;;9.10;6.30;;;;;;;2.31;100.00;100103.97;5011606;28;20032;-68
2023/02/04 08:39:15;;;;;;;11.02;8.27;;;;;;;2.29;100.00;100105.53;5012387;28;20057;-68
2023/02/04 08:41:41;;;;;;;10.20;7.75;;;;;;;2.26;100.00;100099.44;5012173;28;20026;-68
2023/02/04 08:44:06;;;;;;;10.15;7.53;;;;;;;2.35;100.00;100104.25;4993545;28;20045;-68
2023/02/04 08:46:31;;;;;;;9.50;7.15;;;;;;;2.30;100.00;100103.06;5012304;28;20026;-68
2023/02/04 08:48:57;;;;;;;10.10;6.90;;;;;;;2.35;100.00;100096.59;4994584;28;20038;-68
2023/02/04 08:51:22;;;;;;;9.77;7.05;;;;;;;2.38;100.00;100095.91;5012248;28;20400;-68
2023/02/04 08:53:48;;;;;;;8.88;6.80;;;;;;;2.42;100.00;100093.66;5011825;28;20030;-68
2023/02/04 08:56:16;;;;;;;9.90;6.68;;;;;;;2.15;100.00;100044.41;4994635;28;20571;-68
2023/02/04 08:58:42;;;;;;;9.10;6.88;;;;;;;2.06;100.00;100009.06;5011878;28;20123;-68
2023/02/04 09:01:10;;;;;;;7.68;5.07;;;;;;;2.56;100.00;100080.94;5018794;28;20029;-68
2023/02/04 09:03:36;;;;;;;8.32;5.90;;;;;;;2.36;100.00;100049.09;5034567;28;20041;-68
2023/02/04 09:06:01;;;;;;;6.75;5.03;;;;;;;2.68;100.00;100071.50;5051351;28;20098;-68
2023/02/04 09:08:27;;;;;;;7.10;4.60;;;;;;;2.49;100.00;100025.25;5051205;28;20108;-68
2023/02/04 09:10:52;;;;;;;8.60;5.80;;;;;;;2.19;100.00;99959.75;5039880;28;20468;-68
2023/02/04 09:13:17;;;;;;;6.20;4.38;;;;;;;2.91;100.00;100055.03;5041797;28;20394;-67
2023/02/04 09:15:43;;;;;;;6.85;3.97;;;;;;;3.09;100.00;100036.56;5041280;28;20449;-69
2023/02/04 09:18:20;;;;;;;6.55;4.20;;;;;;;3.27;100.00;100046.09;5040402;28;20468;-69
2023/02/04 09:20:47;;;;;;;6.65;4.57;;;;;;;3.46;100.00;100045.50;5040987;28;20037;-69
2023/02/04 09:23:13;;;;;;;6.13;4.05;;;;;;;3.51;100.00;100039.00;5028145;28;20033;-68
2023/02/04 09:25:39;;;;;;;6.95;4.40;;;;;;;3.63;100.00;100024.38;5028361;28;20030;-69
2023/02/04 09:28:05;;;;;;;6.80;4.75;;;;;;;3.82;100.00;100040.75;5028565;28;20065;-69
2023/02/04 09:30:31;;;;;;;6.80;4.47;;;;;;;3.89;100.00;100035.22;5028280;28;20072;-68
2023/02/04 09:32:56;;;;;;;6.45;4.68;;;;;;;4.08;100.00;100029.47;5028185;28;20033;-68
2023/02/04 09:35:22;;;;;;;7.15;4.50;;;;;;;4.34;100.00;100038.56;5028178;28;20029;-68
2023/02/04 09:37:47;;;;;;;7.25;4.70;;;;;;;4.50;100.00;100031.75;5028200;28;20084;-69
2023/02/04 09:40:17;;;;;;;7.15;4.80;;;;;;;4.54;100.00;100029.41;5028076;28;20037;-69
2023/02/04 09:42:47;;;;;;;6.97;5.07;;;;;;;4.63;100.00;100018.81;5028122;28;20415;-69
2023/02/04 09:45:16;;;;;;;7.20;4.72;;;;;;;4.91;100.00;100020.28;5028069;28;20401;-69
2023/02/04 09:47:42;;;;;;;7.05;4.85;;;;;;;5.01;100.00;100019.09;5027982;28;20033;-68
2023/02/04 09:50:14;;;;;;;6.75;5.03;;;;;;;4.91;100.00;100004.94;5027637;28;20548;-68
2023/02/04 09:52:40;;;;;;;8.52;4.70;;;;;;;4.98;100.00;100006.97;5025684;28;20110;-68
2023/02/04 09:55:12;;;;;;;7.00;4.30;;;;;;;4.89;100.00;100006.53;5039743;28;20068;-68
2023/02/04 09:57:40;;;;;;;5.43;3.58;;;;;;;4.80;100.00;99970.25;5036925;28;20033;-67
2023/02/04 10:00:14;;;;;;;6.32;4.10;;;;;;;5.00;100.00;99999.41;5046220;28;20052;-68
2023/02/04 10:02:40;;;;;;;7.10;3.60;;;;;;;4.97;100.00;99984.78;5047825;28;20464;-67
2023/02/04 10:05:08;;;;;;;7.57;5.18;;;;;;;5.05;100.00;99991.94;5047036;28;20063;-68
2023/02/04 10:07:34;;;;;;;7.75;5.00;;;;;;;4.84;100.00;99938.91;5031497;28;20190;-68
2023/02/04 10:09:59;;;;;;;6.75;4.88;;;;;;;5.28;100.00;99972.66;5048634;28;20492;-68
2023/02/04 10:12:26;;;;;;;7.68;4.88;;;;;;;5.41;100.00;99963.91;5049134;28;20033;-68
2023/02/04 10:14:51;;;;;;;6.70;4.43;;;;;;;5.48;100.00;99958.28;5048815;28;20158;-68
2023/02/04 10:17:20;;;;;;;6.70;4.65;;;;;;;5.64;100.00;99947.13;5048429;28;20119;-67
2023/02/04 10:19:46;;;;;;;5.53;4.18;;;;;;;5.64;100.00;99953.09;5049152;28;20052;-69
2023/02/04 10:22:17;;;;;;;8.55;4.03;;;;;;;5.54;100.00;99940.66;5048488;28;20029;-68
2023/02/04 10:24:43;;;;;;;9.82;5.15;;;;;;;4.84;100.00;99811.03;5046419;28;20088;-68
2023/02/04 10:27:10;;;;;;;9.43;5.55;;;;;;;5.65;100.00;99925.81;5048989;28;20105;-68
2023/02/04 10:29:36;;;;;;;6.30;4.38;;;;;;;5.75;100.00;99927.16;5048495;28;20035;-68
2023/02/04 10:32:02;;;;;;;9.75;4.80;;;;;;;5.59;100.00;99903.34;5049435;28;20028;-68
2023/02/04 10:34:38;;;;;;;6.85;4.80;;;;;;;5.77;100.00;99917.84;5048582;28;20033;-68
2023/02/04 10:37:21;;;;;;;6.70;4.50;;;;;;;6.02;100.00;99916.44;5048759;28;20040;-68
2023/02/04 10:39:48;;;;;;;7.20;4.78;;;;;;;6.18;100.00;99916.38;5048298;28;20029;-68
2023/02/04 10:42:25;;;;;;;6.85;4.00;;;;;;;6.35;100.00;99911.13;5049057;28;20029;-68
2023/02/04 10:44:51;;;;;;;5.63;4.35;;;;;;;6.35;100.00;99908.56;5049153;28;20100;-68
2023/02/04 10:47:29;;;;;;;6.63;4.35;;;;;;;6.59;100.00;99895.94;5048275;28;20406;-68
2023/02/04 10:49:55;;;;;;;12.10;4.60;;;;;;;6.85;100.00;99904.75;5027867;28;20045;-69
2023/02/04 10:52:23;;;;;;;7.65;4.70;;;;;;;7.10;100.00;99900.66;5052058;28;20064;-69
2023/02/04 10:54:49;;;;;;;8.98;5.18;;;;;;;7.01;100.00;99900.28;5047605;28;20422;-68
2023/02/04 10:57:27;;;;;;;6.30;4.50;;;;;;;7.16;100.00;99895.78;5048573;28;20029;-69
2023/02/04 11:00:02;;;;;;;9.50;4.60;;;;;;;6.88;100.00;99892.06;5049675;28;20071;-68
2023/02/04 11:02:36;;;;;;;6.68;4.13;;;;;;;6.75;100.00;99857.31;5052406;28;20111;-69
2023/02/04 11:05:03;;;;;;;7.70;4.88;;;;;;;7.08;100.00;99872.38;5052424;28;20041;-68
2023/02/04 11:07:29;;;;;;;7.05;4.55;;;;;;;7.24;100.00;99886.72;5050736;28;20494;-69
2023/02/04 11:09:55;;;;;;;11.38;8.00;;;;;;;7.22;100.00;99882.34;5048254;28;20033;-68
2023/02/04 11:12:46;;;;;;;11.60;6.97;;;;;;;6.95;100.00;99890.63;5052332;28;20032;-69
2023/02/04 11:15:43;;;;;;;9.38;5.35;;;;;;;6.80;100.00;99885.72;4990738;28;20129;-68
2023/02/04 11:18:20;;;;;;;8.38;4.60;;;;;;;6.60;100.00;99884.88;4990433;28;20042;-68
2023/02/04 11:20:51;;;;;;;9.82;5.80;;;;;;;6.57;100.00;99872.78;4990287;28;20042;-69